createdAt,value
2019-05-21T00:02:28.313Z,15.77
2019-05-21T00:04:57.621Z,15.75
2019-05-21T00:07:26.996Z,15.74
2019-05-21T00:09:56.321Z,15.50
2019-05-21T00:12:25.629Z,15.71
2019-05-21T00:14:54.939Z,15.72
2019-05-21T00:17:24.309Z,15.69
2019-05-21T00:20:05.589Z,15.69
2019-05-21T00:22:35.181Z,15.66
2019-05-21T00:25:06.184Z,15.62
2019-05-21T00:27:35.478Z,15.59
2019-05-21T00:30:42.780Z,15.57
2019-05-21T00:33:50.090Z,15.54
2019-05-21T00:40:13.488Z,15.45
2019-05-21T00:45:44.476Z,15.35
2019-05-21T00:48:13.769Z,15.37
2019-05-21T00:50:43.069Z,15.38
2019-05-21T00:53:12.377Z,15.37
2019-05-21T00:55:41.680Z,15.39
2019-05-21T00:58:10.994Z,15.35
2019-05-21T01:00:40.390Z,15.31
2019-05-21T01:03:09.684Z,15.27
2019-05-21T01:05:38.990Z,15.23
2019-05-21T01:08:08.293Z,15.19
2019-05-21T01:10:37.643Z,15.13
2019-05-21T01:13:06.939Z,15.11
2019-05-21T01:15:36.272Z,15.07
2019-05-21T01:18:24.469Z,15.02
2019-05-21T01:20:53.824Z,14.97
2019-05-21T01:23:23.103Z,14.96
2019-05-21T01:25:52.401Z,15.03
2019-05-21T01:28:21.699Z,15.05
2019-05-21T01:30:51.003Z,15.05
2019-05-21T01:33:20.301Z,15.04
2019-05-21T01:36:00.857Z,15.06
2019-05-21T01:38:30.177Z,15.10
2019-05-21T01:40:59.487Z,15.15
2019-05-21T01:43:28.809Z,15.18
2019-05-21T01:45:58.097Z,15.19
2019-05-21T01:48:27.409Z,15.21
2019-05-21T01:50:56.707Z,15.23
2019-05-21T01:53:26.004Z,15.22
2019-05-21T01:55:55.316Z,15.23
2019-05-21T01:58:43.650Z,15.22
2019-05-21T02:01:12.959Z,15.21
2019-05-21T02:03:42.266Z,15.20
2019-05-21T02:06:11.611Z,15.22
2019-05-21T02:08:40.910Z,15.21
2019-05-21T02:11:10.228Z,15.19
2019-05-21T02:13:39.564Z,15.19
2019-05-21T02:16:08.875Z,15.15
2019-05-21T02:18:38.195Z,15.12
2019-05-21T02:21:07.495Z,15.08
2019-05-21T02:23:36.806Z,15.02
2019-05-21T02:26:06.140Z,14.96
2019-05-21T02:28:35.468Z,14.90
2019-05-21T02:31:05.086Z,14.90
2019-05-21T02:33:34.405Z,14.92
2019-05-21T02:36:03.721Z,14.86
2019-05-21T02:38:33.103Z,14.88
2019-05-21T02:41:02.517Z,14.87
2019-05-21T02:43:31.796Z,14.87
2019-05-21T02:46:01.122Z,14.84
2019-05-21T02:48:30.422Z,14.85
2019-05-21T02:50:59.721Z,14.86
2019-05-21T02:53:29.022Z,14.85
2019-05-21T02:55:58.313Z,14.89
2019-05-21T02:58:27.612Z,14.89
2019-05-21T03:01:17.914Z,14.88
2019-05-21T03:03:58.334Z,14.87
2019-05-21T03:06:27.626Z,14.86
2019-05-21T03:08:56.982Z,14.88
2019-05-21T03:11:26.270Z,14.88
2019-05-21T03:13:55.566Z,14.87
2019-05-21T03:16:24.885Z,14.86
2019-05-21T03:18:54.186Z,14.87
2019-05-21T03:21:23.497Z,14.87
2019-05-21T03:23:52.828Z,14.88
2019-05-21T03:26:22.137Z,14.88
2019-05-21T03:28:51.437Z,14.90
2019-05-21T03:31:20.838Z,14.94
2019-05-21T03:33:50.161Z,14.96
2019-05-21T03:36:32.630Z,14.99
2019-05-21T03:38:50.525Z,15.01
2019-05-21T03:41:19.819Z,15.05
2019-05-21T03:43:49.114Z,15.06
2019-05-21T03:46:18.405Z,15.07
2019-05-21T03:49:06.789Z,15.08
2019-05-21T03:51:36.098Z,15.10
2019-05-21T03:54:05.407Z,15.12
2019-05-21T03:56:34.722Z,15.13
2019-05-21T03:59:04.132Z,15.14
2019-05-21T04:01:33.495Z,15.15
2019-05-21T04:04:02.802Z,15.17
2019-05-21T04:06:50.307Z,15.18
2019-05-21T04:09:03.140Z,15.21
2019-05-21T04:11:32.440Z,15.24
2019-05-21T04:14:01.803Z,15.29
2019-05-21T04:16:50.020Z,15.32
2019-05-21T04:19:23.044Z,15.39
2019-05-21T04:22:11.299Z,15.46
2019-05-21T04:24:40.609Z,15.52
2019-05-21T04:27:09.912Z,15.59
2019-05-21T04:29:39.205Z,15.61
2019-05-21T04:32:08.510Z,15.57
2019-05-21T04:34:37.814Z,15.51
2019-05-21T04:37:46.471Z,15.56
2019-05-21T04:40:15.892Z,15.65
2019-05-21T04:42:45.181Z,15.74
2019-05-21T04:45:53.806Z,15.79
2019-05-21T04:48:23.111Z,15.82
2019-05-21T04:50:52.431Z,15.85
2019-05-21T04:53:21.733Z,15.86
2019-05-21T04:55:51.038Z,15.92
2019-05-21T04:58:20.381Z,16.01
2019-05-21T05:00:49.709Z,16.10
2019-05-21T05:03:19.063Z,16.21
2019-05-21T05:05:48.405Z,16.35
2019-05-21T05:08:17.811Z,16.50
2019-05-21T05:10:49.262Z,16.66
2019-05-21T05:13:18.192Z,16.68
2019-05-21T05:15:47.519Z,16.66
2019-05-21T05:18:16.834Z,16.66
2019-05-21T05:20:46.211Z,16.62
2019-05-21T05:23:15.580Z,16.61
2019-05-21T05:25:44.959Z,16.64
2019-05-21T05:28:14.285Z,16.63
2019-05-21T05:30:43.646Z,16.65
2019-05-21T05:33:12.958Z,16.70
2019-05-21T05:35:42.389Z,16.75
2019-05-21T05:38:11.724Z,16.86
2019-05-21T05:40:41.037Z,16.98
2019-05-21T05:43:10.453Z,17.05
2019-05-21T05:45:39.779Z,17.13
2019-05-21T05:48:09.080Z,17.21
2019-05-21T05:56:11.127Z,17.42
2019-05-21T05:58:40.439Z,17.44
2019-05-21T06:01:09.763Z,17.47
2019-05-21T06:03:39.118Z,17.52
2019-05-21T06:06:08.435Z,17.62
2019-05-21T06:08:37.772Z,17.74
2019-05-21T06:11:07.259Z,17.86
2019-05-21T06:13:36.577Z,17.95
2019-05-21T06:16:05.896Z,18.02
2019-05-21T06:18:35.798Z,18.14
2019-05-21T06:21:06.356Z,18.18
2019-05-21T06:23:35.651Z,18.26
2019-05-21T06:26:05.181Z,18.38
2019-05-21T06:28:34.483Z,18.37
2019-05-21T06:31:22.867Z,18.48
2019-05-21T06:33:52.285Z,18.49
2019-05-21T06:36:24.094Z,18.60
2019-05-21T06:38:53.506Z,18.54
2019-05-21T06:41:22.811Z,18.69
2019-05-21T06:46:42.023Z,18.90
2019-05-21T06:49:11.302Z,18.94
2019-05-21T06:51:40.592Z,18.99
2019-05-21T06:54:09.909Z,19.12
2019-05-21T06:56:39.253Z,19.21
2019-05-21T06:59:08.579Z,19.30
2019-05-21T07:01:37.903Z,19.36
2019-05-21T07:04:07.197Z,19.48
2019-05-21T07:06:36.501Z,19.61
2019-05-21T07:09:45.675Z,19.78
2019-05-21T07:12:14.972Z,19.92
2019-05-21T07:14:44.271Z,19.95
2019-05-21T07:17:13.538Z,20.13
2019-05-21T07:20:02.039Z,20.34
2019-05-21T07:22:32.845Z,20.43
2019-05-21T07:25:02.194Z,20.59
2019-05-21T07:27:31.467Z,20.58
2019-05-21T07:30:00.754Z,20.57
2019-05-21T07:32:30.099Z,20.64
2019-05-21T07:34:59.417Z,20.66
2019-05-21T07:37:31.057Z,20.56
2019-05-21T07:40:00.414Z,20.52
2019-05-21T07:42:29.749Z,20.50
2019-05-21T07:44:59.027Z,20.56
2019-05-21T07:47:28.313Z,20.54
2019-05-21T07:49:57.623Z,20.48
2019-05-21T07:52:26.925Z,20.36
2019-05-21T07:54:58.954Z,20.33
2019-05-21T07:57:28.273Z,20.23
2019-05-21T07:59:57.626Z,20.20
2019-05-21T08:02:26.932Z,20.12
2019-05-21T08:04:56.549Z,20.04
2019-05-21T08:07:25.927Z,20.03
2019-05-21T08:09:55.204Z,19.97
2019-05-21T08:12:38.076Z,19.88
2019-05-21T08:14:55.535Z,19.86
2019-05-21T08:17:24.828Z,19.88
2019-05-21T08:19:54.128Z,19.91
2019-05-21T08:22:23.419Z,19.89
2019-05-21T08:24:52.732Z,19.98
2019-05-21T08:27:22.059Z,20.10
2019-05-21T08:30:30.671Z,20.23
2019-05-21T08:33:02.337Z,20.53
2019-05-21T08:35:31.664Z,21.03
2019-05-21T08:38:00.950Z,21.37
2019-05-21T08:40:30.272Z,21.51
2019-05-21T08:43:01.655Z,21.47
2019-05-21T08:45:30.951Z,21.57
2019-05-21T08:48:00.288Z,21.62
2019-05-21T08:50:29.595Z,21.68
2019-05-21T08:52:58.849Z,21.84
2019-05-21T08:55:28.242Z,22.02
2019-05-21T08:58:06.830Z,22.15
2019-05-21T09:03:29.486Z,22.37
2019-05-21T09:05:58.786Z,22.49
2019-05-21T09:08:28.092Z,22.64
2019-05-21T09:10:57.395Z,22.74
2019-05-21T09:13:26.746Z,22.91
2019-05-21T09:15:56.083Z,22.95
2019-05-21T09:18:25.369Z,22.83
2019-05-21T09:23:30.022Z,22.54
2019-05-21T09:25:59.370Z,22.39
2019-05-21T09:28:28.778Z,22.26
2019-05-21T09:31:01.710Z,22.14
2019-05-21T09:33:29.226Z,22.05
2019-05-21T09:35:58.557Z,22.09
2019-05-21T09:38:27.854Z,22.26
2019-05-21T09:40:57.206Z,22.42
2019-05-21T09:43:28.681Z,22.38
2019-05-21T09:45:57.981Z,22.50
2019-05-21T09:48:27.296Z,22.59
2019-05-21T09:50:56.605Z,22.70
2019-05-21T09:53:25.897Z,22.95
2019-05-21T09:55:55.368Z,23.17
2019-05-21T09:58:43.561Z,23.42
2019-05-21T10:01:31.782Z,23.53
2019-05-21T10:04:01.070Z,23.42
2019-05-21T10:06:30.457Z,23.30
2019-05-21T10:08:59.768Z,23.18
2019-05-21T10:11:29.061Z,23.03
2019-05-21T10:13:58.374Z,22.95
2019-05-21T10:16:27.668Z,22.86
2019-05-21T10:19:16.011Z,22.78
2019-05-21T10:21:45.326Z,22.73
2019-05-21T10:24:14.698Z,22.64
2019-05-21T10:26:44.022Z,22.49
2019-05-21T10:29:13.325Z,22.58
2019-05-21T10:31:42.643Z,22.55
2019-05-21T10:34:13.450Z,22.59
2019-05-21T10:36:43.028Z,22.50
2019-05-21T10:39:12.523Z,22.34
2019-05-21T10:41:41.835Z,22.29
2019-05-21T10:44:11.145Z,22.36
2019-05-21T10:46:40.443Z,22.26
2019-05-21T10:49:09.852Z,22.27
2019-05-21T10:51:39.156Z,22.27
2019-05-21T10:54:08.630Z,22.24
2019-05-21T10:56:47.218Z,22.24
2019-05-21T10:59:09.011Z,22.27
2019-05-21T11:01:57.267Z,22.24
2019-05-21T11:07:21.305Z,22.07
2019-05-21T11:09:50.696Z,22.09
2019-05-21T11:12:20.094Z,22.04
2019-05-21T11:14:49.434Z,22.03
2019-05-21T11:17:18.762Z,22.04
2019-05-21T11:19:48.069Z,22.10
2019-05-21T11:22:17.381Z,22.25
2019-05-21T11:24:46.692Z,22.33
2019-05-21T11:27:15.994Z,22.35
2019-05-21T11:29:45.356Z,22.45
2019-05-21T11:32:14.657Z,22.57
2019-05-21T11:34:43.991Z,22.71
2019-05-21T11:37:13.322Z,22.91
2019-05-21T11:39:42.629Z,23.08
2019-05-21T11:42:12.006Z,23.10
2019-05-21T11:44:41.313Z,23.19
2019-05-21T11:47:10.614Z,23.39
2019-05-21T11:49:39.925Z,23.56
2019-05-21T11:52:09.248Z,23.69
2019-05-21T11:54:38.601Z,23.89
2019-05-21T11:57:26.792Z,23.96
2019-05-21T11:59:56.112Z,24.08
2019-05-21T12:05:00.343Z,24.05
2019-05-21T12:07:29.659Z,24.01
2019-05-21T12:09:58.976Z,24.14
2019-05-21T12:12:28.305Z,24.21
2019-05-21T12:14:57.694Z,24.28
2019-05-21T12:17:27.008Z,24.40
2019-05-21T12:19:56.341Z,24.41
2019-05-21T12:22:25.649Z,24.34
2019-05-21T12:24:55.032Z,24.42
2019-05-21T12:27:24.356Z,24.55
2019-05-21T12:29:53.673Z,24.62
2019-05-21T12:32:23.013Z,24.59
2019-05-21T12:34:52.363Z,24.50
2019-05-21T12:37:21.676Z,24.40
2019-05-21T12:43:00.004Z,24.69
2019-05-21T12:45:29.479Z,24.78
2019-05-21T12:47:58.822Z,24.71
2019-05-21T12:50:28.156Z,24.76
2019-05-21T12:52:57.492Z,25.04
2019-05-21T12:58:15.123Z,25.35
2019-05-21T13:00:44.477Z,25.41
2019-05-21T13:03:13.806Z,25.43
2019-05-21T13:05:43.171Z,25.34
2019-05-21T13:11:02.437Z,25.30
2019-05-21T13:13:31.756Z,25.38
2019-05-21T13:16:01.184Z,25.55
2019-05-21T13:18:30.622Z,25.59
2019-05-21T13:20:59.986Z,25.55
2019-05-21T13:23:29.324Z,25.66
2019-05-21T13:25:58.652Z,25.64
2019-05-21T13:28:47.046Z,25.62
2019-05-21T13:31:16.473Z,25.56
2019-05-21T13:33:45.835Z,25.47
2019-05-21T13:36:15.276Z,25.43
2019-05-21T13:38:44.744Z,25.42
2019-05-21T13:46:23.725Z,25.38
2019-05-21T13:48:53.098Z,25.21
2019-05-21T13:51:22.424Z,25.08
2019-05-21T13:53:51.755Z,24.85
2019-05-21T13:56:21.190Z,24.77
2019-05-21T14:04:41.162Z,23.39
2019-05-21T14:07:10.466Z,22.75
2019-05-21T14:09:39.798Z,22.56
2019-05-21T14:12:48.423Z,22.40
2019-05-21T14:15:17.728Z,22.19
2019-05-21T14:18:06.035Z,22.01
2019-05-21T14:20:35.351Z,21.94
2019-05-21T14:23:04.730Z,21.87
2019-05-21T14:25:34.290Z,21.85
2019-05-21T14:28:03.690Z,21.75
2019-05-21T14:30:33.010Z,21.34
2019-05-21T14:35:36.698Z,20.85
2019-05-21T14:38:06.012Z,20.77
2019-05-21T14:43:30.347Z,20.67
2019-05-21T14:45:59.643Z,20.56
2019-05-21T14:48:47.995Z,20.53
2019-05-21T14:54:25.289Z,20.55
2019-05-21T14:56:47.316Z,20.64
2019-05-21T14:59:13.526Z,20.66
2019-05-21T15:01:42.884Z,20.62
2019-05-21T15:04:12.340Z,20.73
2019-05-21T15:06:41.690Z,20.78
2019-05-21T15:09:11.033Z,20.90
2019-05-21T15:11:47.380Z,20.96
2019-05-21T15:14:16.679Z,20.98
2019-05-21T15:16:46.001Z,21.00
2019-05-21T15:19:15.353Z,21.00
2019-05-21T15:24:25.000Z,20.99
2019-05-21T15:26:54.465Z,20.93
2019-05-21T15:29:23.777Z,20.83
2019-05-21T15:31:53.133Z,20.78
2019-05-21T15:34:22.464Z,20.64
2019-05-21T15:36:51.801Z,20.51
2019-05-21T15:39:40.218Z,20.40
2019-05-21T15:47:33.008Z,20.38
2019-05-21T15:50:02.377Z,20.39
2019-05-21T15:52:31.702Z,20.21
2019-05-21T15:55:01.044Z,20.19
2019-05-21T15:57:30.405Z,20.11
2019-05-21T15:59:59.759Z,20.10
2019-05-21T16:02:29.121Z,20.10
2019-05-21T16:04:58.488Z,20.07
2019-05-21T16:07:27.805Z,20.00
2019-05-21T16:10:16.077Z,19.74
2019-05-21T16:12:45.409Z,19.56
2019-05-21T16:15:14.957Z,19.61
2019-05-21T16:17:44.290Z,19.67
2019-05-21T16:20:52.937Z,19.64
2019-05-21T16:23:22.381Z,19.56
2019-05-21T16:25:51.761Z,19.28
2019-05-21T16:28:21.145Z,19.56
2019-05-21T16:30:50.476Z,19.55
2019-05-21T16:33:19.872Z,19.51
2019-05-21T16:35:49.211Z,19.45
2019-05-21T16:38:18.664Z,19.37
2019-05-21T16:40:48.272Z,19.33
2019-05-21T16:43:17.767Z,19.25
2019-05-21T16:45:47.217Z,19.24
2019-05-21T16:48:16.561Z,19.28
2019-05-21T16:50:46.159Z,19.31
2019-05-21T16:53:15.652Z,19.33
2019-05-21T16:55:45.021Z,19.41
2019-05-21T16:58:14.507Z,19.49
2019-05-21T17:00:43.830Z,19.64
2019-05-21T17:03:13.175Z,19.74
2019-05-21T17:05:42.508Z,19.77
2019-05-21T17:11:00.367Z,19.74
2019-05-21T17:13:32.244Z,19.80
2019-05-21T17:16:01.545Z,19.97
2019-05-21T17:18:31.013Z,20.11
2019-05-21T17:21:00.360Z,20.13
2019-05-21T17:23:29.684Z,20.16
2019-05-21T17:25:59.036Z,20.21
2019-05-21T17:28:28.419Z,20.19
2019-05-21T17:31:16.699Z,20.19
2019-05-21T17:33:46.082Z,20.17
2019-05-21T17:36:15.431Z,20.05
2019-05-21T17:38:44.801Z,20.06
2019-05-21T17:43:54.670Z,20.12
2019-05-21T17:46:24.057Z,20.13
2019-05-21T17:51:49.203Z,20.12
2019-05-21T17:54:18.545Z,20.07
2019-05-21T17:56:47.947Z,20.01
2019-05-21T17:59:20.405Z,19.98
2019-05-21T18:07:01.746Z,19.88
2019-05-21T18:09:50.593Z,19.84
2019-05-21T18:15:49.190Z,19.76
2019-05-21T18:21:32.768Z,19.71
2019-05-21T18:26:52.445Z,19.62
2019-05-21T18:32:10.277Z,19.54
2019-05-21T18:34:39.715Z,19.53
2019-05-21T18:37:09.223Z,19.52
2019-05-21T18:39:38.728Z,19.51
2019-05-21T18:44:56.662Z,19.49
2019-05-21T18:47:44.979Z,19.47
2019-05-21T18:53:15.750Z,19.42
2019-05-21T18:55:45.106Z,19.39
2019-05-21T18:58:17.273Z,19.38
2019-05-21T19:01:24.904Z,19.36
2019-05-21T19:04:13.263Z,19.35
2019-05-21T19:06:42.714Z,19.32
2019-05-21T19:15:02.527Z,19.20
2019-05-21T19:17:43.758Z,19.17
2019-05-21T19:23:14.580Z,19.12
2019-05-21T19:28:19.330Z,19.07
2019-05-21T19:30:48.742Z,19.06
2019-05-21T19:33:36.941Z,19.03
2019-05-21T19:36:06.339Z,19.01
2019-05-21T19:38:37.297Z,18.96
2019-05-21T19:43:55.267Z,18.87
2019-05-21T19:46:24.704Z,18.82
2019-05-21T19:48:54.082Z,18.78
2019-05-21T19:51:44.653Z,18.73
2019-05-21T19:54:14.131Z,18.67
2019-05-21T19:59:31.906Z,18.57
2019-05-21T20:02:01.332Z,18.52
2019-05-21T20:05:10.002Z,18.49
2019-05-21T20:10:40.023Z,18.41
2019-05-21T20:13:09.460Z,18.35
2019-05-21T20:18:28.814Z,18.28
2019-05-21T20:26:48.574Z,18.14
2019-05-21T20:29:17.890Z,18.10
2019-05-21T20:32:26.524Z,18.07
2019-05-21T20:42:59.385Z,18.09
2019-05-21T21:04:54.509Z,18.00
2019-05-21T21:10:53.118Z,17.96
2019-05-21T21:13:22.550Z,17.94
2019-05-21T21:18:28.277Z,17.95
2019-05-21T21:20:57.636Z,17.96
2019-05-21T21:28:59.029Z,18.01
2019-05-21T21:34:24.059Z,18.00
2019-05-21T21:36:53.567Z,18.00
2019-05-21T21:42:13.136Z,17.99
2019-05-21T21:51:09.521Z,18.01
2019-05-21T21:56:39.881Z,18.00
2019-05-21T21:59:09.234Z,18.01
2019-05-21T22:02:20.780Z,18.01
2019-05-21T22:04:50.227Z,18.04
2019-05-21T22:07:19.736Z,18.03
2019-05-21T22:15:21.172Z,18.00
2019-05-21T22:17:50.882Z,17.99
2019-05-21T22:20:59.559Z,17.98
2019-05-21T22:26:33.198Z,17.91
2019-05-21T22:28:50.071Z,17.88
2019-05-21T22:31:19.402Z,17.85
2019-05-21T22:33:48.877Z,17.83
2019-05-21T22:47:23.154Z,17.58
2019-05-21T22:49:52.517Z,17.53
2019-05-21T22:52:21.985Z,17.48
2019-05-21T22:54:51.333Z,17.42
2019-05-21T22:57:39.662Z,17.36
2019-05-21T23:03:20.778Z,17.25
2019-05-21T23:05:50.140Z,17.19
2019-05-21T23:22:30.655Z,16.90
2019-05-21T23:24:59.997Z,16.88
2019-05-21T23:27:49.420Z,16.87
2019-05-21T23:38:51.485Z,16.85
2019-05-21T23:41:31.846Z,16.84
2019-05-21T23:44:20.650Z,16.84
2019-05-21T23:46:50.090Z,16.84
